createdAt,value
2022-07-27T00:01:59.942Z,14.01
2022-07-27T00:04:03.671Z,13.99
2022-07-27T00:06:07.819Z,13.96
2022-07-27T00:08:11.456Z,13.92
2022-07-27T00:10:16.056Z,13.88
2022-07-27T00:12:21.416Z,13.88
2022-07-27T00:14:25.002Z,13.90
2022-07-27T00:16:28.547Z,13.88
2022-07-27T00:18:32.025Z,13.87
2022-07-27T00:20:35.303Z,13.85
2022-07-27T00:22:38.834Z,13.84
2022-07-27T00:24:42.325Z,13.83
2022-07-27T00:26:45.609Z,13.81
2022-07-27T00:28:50.668Z,13.79
2022-07-27T00:30:54.024Z,13.77
2022-07-27T00:32:57.672Z,13.74
2022-07-27T00:35:01.002Z,13.72
2022-07-27T00:37:04.647Z,13.69
2022-07-27T00:39:08.058Z,13.66
2022-07-27T00:41:12.381Z,13.63
2022-07-27T00:43:15.718Z,13.58
2022-07-27T00:45:20.564Z,13.54
2022-07-27T00:47:23.968Z,13.50
2022-07-27T00:49:28.184Z,13.48
2022-07-27T00:51:31.695Z,13.45
2022-07-27T00:53:35.723Z,13.43
2022-07-27T00:55:40.943Z,13.40
2022-07-27T00:57:58.018Z,13.35
2022-07-27T01:00:03.535Z,13.31
2022-07-27T01:02:11.864Z,13.24
2022-07-27T01:04:15.663Z,13.20
2022-07-27T01:06:26.859Z,13.16
2022-07-27T01:08:31.150Z,13.13
2022-07-27T01:10:33.868Z,13.11
2022-07-27T01:12:37.189Z,13.10
2022-07-27T01:14:41.366Z,13.08
2022-07-27T01:16:45.476Z,13.06
2022-07-27T01:18:50.344Z,13.02
2022-07-27T01:20:53.642Z,13.00
2022-07-27T01:22:58.477Z,12.98
2022-07-27T01:25:01.915Z,12.95
2022-07-27T01:27:06.116Z,12.89
2022-07-27T01:29:09.826Z,12.84
2022-07-27T01:31:13.559Z,12.80
2022-07-27T01:33:17.013Z,12.77
2022-07-27T01:35:20.552Z,12.72
2022-07-27T01:37:23.977Z,12.71
2022-07-27T01:39:28.690Z,12.68
2022-07-27T01:41:32.208Z,12.66
2022-07-27T01:43:35.689Z,12.64
2022-07-27T01:45:40.601Z,12.60
2022-07-27T01:47:43.887Z,12.59
2022-07-27T01:49:47.322Z,12.57
2022-07-27T01:51:50.688Z,12.56
2022-07-27T01:53:54.031Z,12.56
2022-07-27T01:55:58.739Z,12.53
2022-07-27T01:58:04.072Z,12.55
2022-07-27T02:00:10.941Z,12.52
2022-07-27T02:02:16.910Z,12.52
2022-07-27T02:04:20.170Z,12.53
2022-07-27T02:06:23.741Z,12.55
2022-07-27T02:08:27.276Z,12.53
2022-07-27T02:10:31.768Z,12.52
2022-07-27T02:12:38.329Z,12.49
2022-07-27T02:14:41.718Z,12.47
2022-07-27T02:16:45.383Z,12.45
2022-07-27T02:18:49.045Z,12.44
2022-07-27T02:20:52.386Z,12.41
2022-07-27T02:22:55.752Z,12.40
2022-07-27T02:24:59.582Z,12.37
2022-07-27T02:27:02.846Z,12.33
2022-07-27T02:29:07.698Z,12.31
2022-07-27T02:31:10.971Z,12.26
2022-07-27T02:33:14.318Z,12.24
2022-07-27T02:35:19.188Z,12.24
2022-07-27T02:37:25.060Z,12.21
2022-07-27T02:39:28.326Z,12.17
2022-07-27T02:41:31.731Z,12.16
2022-07-27T02:43:34.963Z,12.14
2022-07-27T02:45:39.735Z,12.11
2022-07-27T02:47:43.390Z,12.08
2022-07-27T02:49:46.603Z,12.05
2022-07-27T02:51:51.839Z,12.03
2022-07-27T02:53:55.219Z,12.00
2022-07-27T02:55:59.166Z,11.96
2022-07-27T02:58:02.909Z,11.96
2022-07-27T03:00:11.549Z,11.94
2022-07-27T03:02:16.358Z,11.94
2022-07-27T03:04:20.452Z,11.91
2022-07-27T03:06:24.029Z,11.90
2022-07-27T03:08:27.414Z,11.88
2022-07-27T03:10:30.735Z,11.85
2022-07-27T03:12:34.109Z,11.82
2022-07-27T03:14:37.382Z,11.80
2022-07-27T03:16:40.726Z,11.77
2022-07-27T03:18:45.859Z,11.75
2022-07-27T03:20:49.528Z,11.73
2022-07-27T03:22:54.415Z,11.71
2022-07-27T03:24:58.259Z,11.68
2022-07-27T03:27:01.851Z,11.67
2022-07-27T03:29:05.692Z,11.66
2022-07-27T03:31:09.376Z,11.64
2022-07-27T03:33:13.174Z,11.62
2022-07-27T03:35:19.696Z,11.61
2022-07-27T03:37:23.846Z,11.59
2022-07-27T03:39:27.826Z,11.58
2022-07-27T03:41:31.645Z,11.56
2022-07-27T03:43:35.517Z,11.54
2022-07-27T03:45:39.340Z,11.53
2022-07-27T03:47:42.925Z,11.52
2022-07-27T03:49:48.030Z,11.52
2022-07-27T03:51:52.945Z,11.51
2022-07-27T03:53:56.907Z,11.51
2022-07-27T03:56:00.463Z,11.51
2022-07-27T03:58:04.032Z,11.53
2022-07-27T04:00:11.522Z,11.56
2022-07-27T04:02:15.233Z,11.57
2022-07-27T04:04:19.017Z,11.58
2022-07-27T04:06:22.648Z,11.63
2022-07-27T04:08:27.768Z,11.65
2022-07-27T04:10:31.724Z,11.67
2022-07-27T04:12:38.790Z,11.69
2022-07-27T04:14:42.727Z,11.73
2022-07-27T04:16:47.221Z,11.75
2022-07-27T04:18:50.970Z,11.76
2022-07-27T04:20:54.786Z,11.76
2022-07-27T04:22:58.298Z,11.77
2022-07-27T04:25:03.556Z,11.78
2022-07-27T04:27:08.447Z,11.78
2022-07-27T04:29:14.728Z,11.78
2022-07-27T04:31:20.940Z,11.77
2022-07-27T04:33:24.846Z,11.77
2022-07-27T04:35:28.745Z,11.78
2022-07-27T04:37:33.633Z,11.78
2022-07-27T04:39:37.558Z,11.81
2022-07-27T04:41:42.590Z,11.82
2022-07-27T04:43:46.347Z,11.85
2022-07-27T04:45:50.142Z,11.92
2022-07-27T04:47:53.833Z,11.95
2022-07-27T04:49:57.838Z,11.98
2022-07-27T04:52:01.845Z,11.99
2022-07-27T04:54:05.773Z,12.00
2022-07-27T04:56:10.187Z,12.04
2022-07-27T04:58:16.165Z,12.06
2022-07-27T05:00:20.402Z,12.09
2022-07-27T05:02:24.339Z,12.10
2022-07-27T05:04:28.485Z,12.13
2022-07-27T05:06:34.243Z,12.15
2022-07-27T05:08:37.984Z,12.18
2022-07-27T05:10:41.701Z,12.20
2022-07-27T05:12:45.539Z,12.23
2022-07-27T05:14:50.639Z,12.24
2022-07-27T05:16:54.367Z,12.26
2022-07-27T05:18:59.032Z,12.28
2022-07-27T05:21:03.386Z,12.32
2022-07-27T05:23:07.309Z,12.36
2022-07-27T05:25:12.104Z,12.41
2022-07-27T05:27:15.774Z,12.46
2022-07-27T05:29:19.397Z,12.52
2022-07-27T05:31:25.602Z,12.55
2022-07-27T05:33:29.809Z,12.64
2022-07-27T05:35:34.019Z,12.70
2022-07-27T05:37:37.696Z,12.79
2022-07-27T05:39:42.589Z,12.84
2022-07-27T05:41:46.415Z,12.87
2022-07-27T05:43:54.659Z,12.90
2022-07-27T05:45:58.351Z,12.92
2022-07-27T05:48:03.842Z,12.94
2022-07-27T05:50:08.699Z,12.98
2022-07-27T05:52:12.444Z,13.02
2022-07-27T05:54:16.768Z,13.05
2022-07-27T05:56:20.508Z,13.08
2022-07-27T05:58:24.857Z,13.10
2022-07-27T06:00:28.938Z,13.14
2022-07-27T06:02:32.791Z,13.18
2022-07-27T06:04:37.873Z,13.21
2022-07-27T06:06:58.898Z,13.26
2022-07-27T06:09:02.437Z,13.29
2022-07-27T06:11:06.290Z,13.34
2022-07-27T06:13:12.152Z,13.40
2022-07-27T06:15:17.275Z,13.43
2022-07-27T06:17:21.063Z,13.40
2022-07-27T06:19:25.118Z,13.36
2022-07-27T06:21:41.352Z,13.30
2022-07-27T06:23:46.122Z,13.26
2022-07-27T06:25:50.437Z,13.30
2022-07-27T06:27:54.543Z,13.32
2022-07-27T06:29:58.292Z,13.32
2022-07-27T06:32:02.094Z,13.34
2022-07-27T06:34:08.171Z,13.36
2022-07-27T06:36:15.424Z,13.39
2022-07-27T06:38:20.627Z,13.44
2022-07-27T06:40:28.590Z,13.44
2022-07-27T06:42:33.501Z,13.52
2022-07-27T06:44:37.251Z,13.64
2022-07-27T06:46:40.940Z,13.77
2022-07-27T06:48:44.813Z,13.90
2022-07-27T06:50:49.078Z,14.03
2022-07-27T06:52:52.844Z,14.15
2022-07-27T06:54:58.109Z,14.19
2022-07-27T06:57:02.024Z,14.22
2022-07-27T06:59:06.221Z,14.31
2022-07-27T07:01:09.806Z,14.45
2022-07-27T07:03:13.535Z,14.55
2022-07-27T07:05:17.120Z,14.80
2022-07-27T07:07:21.349Z,14.99
2022-07-27T07:09:25.016Z,15.08
2022-07-27T07:11:30.368Z,15.04
2022-07-27T07:13:38.463Z,14.94
2022-07-27T07:15:45.011Z,14.89
2022-07-27T07:17:48.660Z,14.94
2022-07-27T07:19:52.373Z,15.05
2022-07-27T07:21:56.085Z,15.12
2022-07-27T07:23:59.726Z,15.13
2022-07-27T07:26:03.289Z,15.17
2022-07-27T07:28:09.047Z,15.26
2022-07-27T07:30:13.768Z,15.31
2022-07-27T07:32:17.748Z,15.30
2022-07-27T07:34:21.374Z,15.25
2022-07-27T07:36:25.137Z,15.24
2022-07-27T07:38:28.848Z,15.34
2022-07-27T07:40:43.096Z,15.49
2022-07-27T07:42:52.612Z,15.68
2022-07-27T07:44:57.880Z,15.90
2022-07-27T07:47:02.396Z,16.04
2022-07-27T07:49:06.252Z,16.10
2022-07-27T07:51:09.980Z,16.23
2022-07-27T07:53:16.225Z,16.67
2022-07-27T07:55:21.552Z,16.80
2022-07-27T07:57:25.408Z,16.74
2022-07-27T07:59:29.217Z,16.97
2022-07-27T08:01:34.562Z,17.33
2022-07-27T08:03:38.342Z,17.50
2022-07-27T08:05:42.283Z,17.82
2022-07-27T08:07:47.342Z,17.99
2022-07-27T08:09:51.055Z,17.83
2022-07-27T08:11:54.613Z,17.76
2022-07-27T08:13:58.337Z,18.18
2022-07-27T08:16:02.134Z,18.62
2022-07-27T08:18:07.845Z,18.88
2022-07-27T08:20:13.569Z,19.09
2022-07-27T08:22:17.494Z,19.26
2022-07-27T08:24:21.103Z,19.18
2022-07-27T08:26:24.717Z,18.75
2022-07-27T08:28:28.970Z,18.50
2022-07-27T08:30:36.206Z,18.69
2022-07-27T08:32:59.438Z,18.70
2022-07-27T08:35:05.253Z,18.72
2022-07-27T08:37:14.961Z,18.55
2022-07-27T08:40:05.460Z,18.33
2022-07-27T08:41:45.022Z,18.16
2022-07-27T08:43:49.973Z,17.94
2022-07-27T08:45:55.834Z,17.71
2022-07-27T08:47:59.578Z,17.36
2022-07-27T08:50:05.273Z,17.21
2022-07-27T08:52:11.596Z,16.97
2022-07-27T08:54:15.617Z,16.81
2022-07-27T08:56:19.344Z,16.79
2022-07-27T08:58:22.975Z,16.58
2022-07-27T09:00:27.497Z,16.49
2022-07-27T09:02:33.249Z,16.33
2022-07-27T09:04:37.270Z,16.24
2022-07-27T09:06:54.130Z,16.26
2022-07-27T09:09:00.779Z,16.20
2022-07-27T09:11:14.803Z,16.14
2022-07-27T09:13:23.826Z,16.08
2022-07-27T09:15:34.210Z,16.01
2022-07-27T09:17:49.182Z,16.03
2022-07-27T09:19:57.380Z,16.01
2022-07-27T09:22:02.501Z,16.13
2022-07-27T09:24:29.349Z,16.16
2022-07-27T09:26:35.350Z,16.19
2022-07-27T09:28:39.325Z,16.04
2022-07-27T09:30:44.457Z,15.93
2022-07-27T09:32:57.678Z,15.92
2022-07-27T09:35:15.865Z,15.87
2022-07-27T09:37:27.871Z,15.86
2022-07-27T09:39:31.881Z,15.88
2022-07-27T09:41:46.702Z,15.77
2022-07-27T09:46:17.730Z,15.85
2022-07-27T09:48:24.229Z,15.87
2022-07-27T09:50:31.168Z,15.86
2022-07-27T09:52:40.762Z,15.93
2022-07-27T09:54:47.839Z,16.05
2022-07-27T09:57:01.782Z,16.12
2022-07-27T09:59:06.107Z,16.22
2022-07-27T10:01:10.235Z,16.35
2022-07-27T10:03:14.172Z,16.50
2022-07-27T10:05:21.685Z,16.56
2022-07-27T10:07:25.360Z,16.55
2022-07-27T10:09:32.533Z,16.68
2022-07-27T10:11:36.781Z,16.81
2022-07-27T10:13:43.631Z,16.73
2022-07-27T10:15:49.415Z,16.55
2022-07-27T10:18:06.899Z,16.42
2022-07-27T10:20:15.986Z,16.30
2022-07-27T10:22:53.225Z,16.21
2022-07-27T10:25:01.724Z,16.26
2022-07-27T10:27:22.145Z,16.19
2022-07-27T10:29:26.937Z,16.08
2022-07-27T10:31:33.423Z,16.09
2022-07-27T10:33:45.743Z,16.13
2022-07-27T10:35:49.825Z,16.22
2022-07-27T10:38:09.970Z,16.15
2022-07-27T10:40:36.427Z,16.19
2022-07-27T10:42:41.118Z,16.18
2022-07-27T10:44:58.955Z,16.28
2022-07-27T10:47:05.094Z,16.34
2022-07-27T10:49:19.707Z,16.48
2022-07-27T10:51:36.392Z,16.68
2022-07-27T10:54:10.558Z,16.66
2022-07-27T10:56:08.782Z,16.68
2022-07-27T10:58:45.124Z,16.79
2022-07-27T11:01:01.778Z,16.96
2022-07-27T11:03:07.311Z,17.08
2022-07-27T11:05:32.749Z,17.15
2022-07-27T11:07:44.745Z,17.05
2022-07-27T11:10:07.864Z,16.92
2022-07-27T11:12:14.490Z,16.83
2022-07-27T11:14:18.842Z,16.83
2022-07-27T11:16:24.754Z,16.88
2022-07-27T11:18:30.428Z,16.89
2022-07-27T11:20:35.757Z,16.90
2022-07-27T11:25:06.491Z,17.13
2022-07-27T11:27:16.848Z,17.27
2022-07-27T11:29:24.479Z,17.47
2022-07-27T11:31:52.925Z,17.66
2022-07-27T11:33:57.264Z,17.54
2022-07-27T11:36:03.671Z,17.51
2022-07-27T11:38:08.910Z,17.54
2022-07-27T11:40:53.215Z,17.62
2022-07-27T11:42:41.769Z,17.76
2022-07-27T11:44:46.569Z,17.93
2022-07-27T11:46:51.977Z,18.08
2022-07-27T11:49:07.865Z,17.87
2022-07-27T11:51:12.170Z,17.74
2022-07-27T11:53:21.876Z,17.63
2022-07-27T11:55:25.668Z,17.65
2022-07-27T11:57:34.255Z,17.53
2022-07-27T11:59:40.273Z,17.38
2022-07-27T12:01:50.187Z,17.25
2022-07-27T12:04:05.182Z,17.22
2022-07-27T12:06:08.855Z,17.31
2022-07-27T12:08:12.655Z,17.34
2022-07-27T12:10:16.704Z,17.35
2022-07-27T12:12:21.805Z,17.40
2022-07-27T12:14:34.782Z,17.62
2022-07-27T12:16:40.120Z,17.64
2022-07-27T12:18:44.207Z,17.48
2022-07-27T12:20:48.878Z,17.38
2022-07-27T12:22:54.026Z,17.31
2022-07-27T12:24:58.673Z,17.31
2022-07-27T12:27:13.300Z,17.35
2022-07-27T12:29:18.245Z,17.37
2022-07-27T12:31:22.242Z,17.40
2022-07-27T12:33:35.020Z,17.34
2022-07-27T12:35:47.227Z,17.31
2022-07-27T12:37:58.548Z,17.42
2022-07-27T12:40:02.420Z,17.45
2022-07-27T12:42:08.094Z,17.29
2022-07-27T12:44:13.662Z,17.19
2022-07-27T12:46:17.473Z,17.17
2022-07-27T12:48:23.491Z,17.27
2022-07-27T12:50:30.307Z,17.14
2022-07-27T12:52:34.919Z,17.12
2022-07-27T12:54:38.983Z,17.12
2022-07-27T12:56:42.690Z,17.03
2022-07-27T12:59:00.364Z,16.85
2022-07-27T13:01:04.512Z,16.79
2022-07-27T13:03:09.088Z,16.69
2022-07-27T13:05:15.421Z,16.61
2022-07-27T13:07:20.980Z,16.52
2022-07-27T13:09:24.777Z,16.54
2022-07-27T13:11:48.975Z,16.52
2022-07-27T13:13:52.514Z,16.62
2022-07-27T13:15:56.367Z,16.49
2022-07-27T13:18:00.080Z,16.40
2022-07-27T13:20:03.862Z,16.38
2022-07-27T13:22:07.515Z,16.35
2022-07-27T13:24:13.731Z,16.39
2022-07-27T13:26:17.652Z,16.44
2022-07-27T13:28:21.749Z,16.52
2022-07-27T13:30:25.899Z,16.75
2022-07-27T13:32:30.326Z,16.83
2022-07-27T13:34:34.816Z,16.90
2022-07-27T13:36:40.794Z,17.02
2022-07-27T13:38:44.458Z,17.01
2022-07-27T13:40:49.844Z,17.06
2022-07-27T13:42:53.623Z,16.99
2022-07-27T13:45:09.382Z,17.00
2022-07-27T13:47:14.774Z,16.80
2022-07-27T13:49:19.235Z,16.70
2022-07-27T13:51:22.980Z,16.70
2022-07-27T13:53:26.730Z,16.65
2022-07-27T14:01:45.057Z,16.69
2022-07-27T14:03:48.438Z,16.72
2022-07-27T14:05:52.169Z,16.83
2022-07-27T14:07:55.922Z,17.00
2022-07-27T14:10:16.714Z,17.17
2022-07-27T14:12:20.876Z,17.31
2022-07-27T14:14:26.836Z,17.33
2022-07-27T14:16:31.262Z,17.20
2022-07-27T14:18:37.360Z,17.05
2022-07-27T14:20:41.669Z,16.99
2022-07-27T14:22:45.744Z,16.85
2022-07-27T14:24:49.878Z,16.78
2022-07-27T14:26:53.555Z,16.76
2022-07-27T14:28:58.122Z,16.68
2022-07-27T14:31:03.109Z,16.61
2022-07-27T14:33:07.171Z,16.58
2022-07-27T14:35:12.885Z,16.55
2022-07-27T14:37:17.787Z,16.53
2022-07-27T14:39:21.373Z,16.44
2022-07-27T14:41:25.463Z,16.41
2022-07-27T14:43:30.306Z,16.34
2022-07-27T14:45:44.759Z,16.30
2022-07-27T14:47:50.802Z,16.29
2022-07-27T14:49:55.208Z,16.31
2022-07-27T14:52:00.479Z,16.26
2022-07-27T14:54:06.131Z,16.24
2022-07-27T14:56:09.796Z,16.23
2022-07-27T14:58:13.626Z,16.30
2022-07-27T15:00:19.576Z,16.33
2022-07-27T15:02:23.509Z,16.28
2022-07-27T15:04:27.723Z,16.29
2022-07-27T15:06:38.483Z,16.28
2022-07-27T15:08:44.511Z,16.13
2022-07-27T15:10:48.784Z,16.02
2022-07-27T15:12:52.911Z,16.05
2022-07-27T15:14:57.569Z,16.07
2022-07-27T15:17:01.698Z,15.99
2022-07-27T15:19:05.465Z,15.99
2022-07-27T15:21:13.214Z,15.94
2022-07-27T15:23:18.459Z,15.94
2022-07-27T15:25:23.919Z,15.96
2022-07-27T15:27:27.642Z,16.01
2022-07-27T15:29:32.057Z,16.04
2022-07-27T15:31:35.939Z,16.00
2022-07-27T15:33:40.213Z,15.96
2022-07-27T15:35:44.094Z,15.84
2022-07-27T15:37:54.143Z,15.82
2022-07-27T15:40:01.538Z,15.82
2022-07-27T15:42:07.774Z,15.82
2022-07-27T15:44:12.321Z,15.89
2022-07-27T15:46:17.090Z,15.92
2022-07-27T15:48:31.737Z,15.95
2022-07-27T15:50:35.907Z,15.92
2022-07-27T15:52:39.779Z,15.90
2022-07-27T15:54:45.762Z,15.90
2022-07-27T15:56:49.762Z,15.89
2022-07-27T15:58:55.096Z,15.89
2022-07-27T16:00:59.122Z,15.87
2022-07-27T16:03:03.019Z,15.86
2022-07-27T16:05:07.451Z,15.85
2022-07-27T16:07:12.469Z,15.83
2022-07-27T16:09:16.519Z,15.84
2022-07-27T16:11:21.315Z,15.81
2022-07-27T16:13:26.584Z,15.77
2022-07-27T16:15:48.925Z,15.77
2022-07-27T16:17:52.792Z,15.75
2022-07-27T16:19:57.382Z,15.80
2022-07-27T16:22:01.094Z,15.82
2022-07-27T16:24:04.784Z,15.86
2022-07-27T16:26:09.093Z,15.78
2022-07-27T16:28:13.117Z,15.67
2022-07-27T16:30:20.701Z,15.62
2022-07-27T16:32:26.350Z,15.55
2022-07-27T16:34:32.296Z,15.60
2022-07-27T16:36:39.301Z,15.60
2022-07-27T16:38:44.313Z,15.63
2022-07-27T16:40:54.360Z,15.64
2022-07-27T16:42:58.209Z,15.60
2022-07-27T16:45:01.872Z,15.58
2022-07-27T16:47:07.060Z,15.55
2022-07-27T16:49:13.784Z,15.49
2022-07-27T16:51:18.109Z,15.46
2022-07-27T16:53:22.033Z,15.50
2022-07-27T16:55:27.506Z,15.50
2022-07-27T16:57:31.463Z,15.50
2022-07-27T16:59:35.286Z,15.52
2022-07-27T17:01:39.087Z,15.53
2022-07-27T17:03:47.626Z,15.50
2022-07-27T17:05:52.704Z,15.53
2022-07-27T17:07:56.594Z,15.57
2022-07-27T17:10:00.313Z,15.60
2022-07-27T17:12:04.514Z,15.54
2022-07-27T17:14:08.569Z,15.60
2022-07-27T17:16:13.036Z,15.65
2022-07-27T17:18:17.891Z,15.69
2022-07-27T17:20:32.901Z,15.65
2022-07-27T17:22:40.922Z,15.69
2022-07-27T17:24:45.264Z,15.70
2022-07-27T17:26:49.022Z,15.68
2022-07-27T17:28:53.845Z,15.76
2022-07-27T17:30:58.653Z,15.82
2022-07-27T17:33:03.195Z,15.85
2022-07-27T17:35:08.530Z,15.89
2022-07-27T17:37:13.799Z,15.76
2022-07-27T17:39:19.548Z,15.69
2022-07-27T17:41:25.495Z,15.67
2022-07-27T17:43:29.773Z,15.71
2022-07-27T17:45:33.505Z,15.80
2022-07-27T17:47:37.749Z,15.81
2022-07-27T17:49:42.583Z,15.84
2022-07-27T17:51:46.527Z,15.72
2022-07-27T17:53:51.014Z,15.70
2022-07-27T17:55:56.949Z,15.65
2022-07-27T17:58:00.842Z,15.61
2022-07-27T18:00:05.027Z,15.56
2022-07-27T18:02:09.793Z,15.52
2022-07-27T18:04:14.262Z,15.50
2022-07-27T18:06:18.597Z,15.47
2022-07-27T18:08:23.248Z,15.46
2022-07-27T18:10:27.413Z,15.48
2022-07-27T18:12:34.745Z,15.45
2022-07-27T18:14:58.930Z,15.53
2022-07-27T18:17:02.758Z,15.52
2022-07-27T18:19:07.200Z,15.51
2022-07-27T18:21:12.514Z,15.59
2022-07-27T18:23:17.687Z,15.65
2022-07-27T18:25:22.032Z,15.68
2022-07-27T18:27:26.341Z,15.58
2022-07-27T18:29:31.392Z,15.45
2022-07-27T18:31:35.304Z,15.45
2022-07-27T18:33:40.703Z,15.42
2022-07-27T18:35:45.395Z,15.45
2022-07-27T18:37:49.272Z,15.41
2022-07-27T18:39:52.981Z,15.32
2022-07-27T18:42:02.069Z,15.20
2022-07-27T18:44:06.317Z,15.18
2022-07-27T18:46:11.677Z,15.10
2022-07-27T18:48:15.467Z,15.00
2022-07-27T18:50:19.431Z,14.97
2022-07-27T18:52:23.138Z,15.00
2022-07-27T18:54:27.730Z,15.07
2022-07-27T18:56:32.445Z,15.08
2022-07-27T18:58:36.225Z,15.04
2022-07-27T19:00:40.156Z,15.04
2022-07-27T19:02:45.606Z,15.04
2022-07-27T19:04:51.096Z,15.01
2022-07-27T19:06:55.618Z,14.98
2022-07-27T19:09:01.481Z,14.97
2022-07-27T19:11:06.267Z,14.93
2022-07-27T19:13:10.820Z,14.93
2022-07-27T19:15:15.527Z,14.97
2022-07-27T19:17:19.459Z,15.02
2022-07-27T19:19:25.098Z,15.04
2022-07-27T19:21:29.068Z,15.04
2022-07-27T19:23:32.819Z,15.07
2022-07-27T19:25:36.412Z,15.10
2022-07-27T19:27:40.147Z,15.09
2022-07-27T19:29:44.009Z,15.02
2022-07-27T19:31:48.077Z,15.01
2022-07-27T19:33:52.514Z,14.99
2022-07-27T19:35:58.652Z,14.92
2022-07-27T19:38:02.708Z,14.88
2022-07-27T19:40:26.554Z,14.91
2022-07-27T19:42:32.457Z,14.86
2022-07-27T19:44:36.361Z,14.87
2022-07-27T19:46:40.279Z,14.87
2022-07-27T19:48:44.819Z,14.88
2022-07-27T19:50:48.751Z,14.87
2022-07-27T19:52:53.915Z,14.88
2022-07-27T19:54:58.689Z,14.87
2022-07-27T19:57:02.828Z,14.87
2022-07-27T19:59:07.032Z,14.85
2022-07-27T20:01:12.526Z,14.82
2022-07-27T20:03:18.503Z,14.77
2022-07-27T20:05:22.863Z,14.71
2022-07-27T20:07:27.014Z,14.69
2022-07-27T20:09:32.513Z,14.66
2022-07-27T20:11:37.233Z,14.61
2022-07-27T20:13:41.541Z,14.63
2022-07-27T20:15:46.144Z,14.63
2022-07-27T20:17:50.398Z,14.59
2022-07-27T20:19:54.211Z,14.56
2022-07-27T20:22:00.208Z,14.48
2022-07-27T20:24:04.672Z,14.42
2022-07-27T20:26:12.550Z,14.39
2022-07-27T20:28:16.765Z,14.37
2022-07-27T20:30:22.024Z,14.32
2022-07-27T20:32:26.196Z,14.32
2022-07-27T20:34:30.046Z,14.30
2022-07-27T20:36:34.179Z,14.30
2022-07-27T20:38:37.979Z,14.30
2022-07-27T20:40:42.729Z,14.29
2022-07-27T20:42:48.561Z,14.24
2022-07-27T20:44:52.279Z,14.21
2022-07-27T20:46:56.572Z,14.20
2022-07-27T20:49:00.326Z,14.22
2022-07-27T20:51:04.081Z,14.28
2022-07-27T20:53:07.820Z,14.26
2022-07-27T20:55:13.700Z,14.26
2022-07-27T20:57:17.694Z,14.23
2022-07-27T20:59:23.317Z,14.23
2022-07-27T21:01:28.151Z,14.22
2022-07-27T21:03:32.420Z,14.22
2022-07-27T21:05:36.262Z,14.20
2022-07-27T21:07:40.403Z,14.19
2022-07-27T21:09:44.066Z,14.20
2022-07-27T21:11:48.150Z,14.19
2022-07-27T21:13:52.011Z,14.15
2022-07-27T21:15:57.244Z,14.11
2022-07-27T21:18:01.609Z,14.08
2022-07-27T21:20:06.247Z,14.07
2022-07-27T21:22:11.610Z,14.07
2022-07-27T21:24:18.622Z,14.06
2022-07-27T21:26:23.173Z,14.07
2022-07-27T21:28:27.011Z,14.10
2022-07-27T21:30:31.780Z,14.11
2022-07-27T21:32:37.061Z,14.13
2022-07-27T21:34:40.734Z,14.13
2022-07-27T21:36:45.414Z,14.13
2022-07-27T21:38:49.195Z,14.13
2022-07-27T21:40:53.316Z,14.14
2022-07-27T21:42:57.070Z,14.18
2022-07-27T21:45:00.868Z,14.22
2022-07-27T21:47:09.969Z,14.27
2022-07-27T21:49:18.494Z,14.32
2022-07-27T21:51:27.708Z,14.36
2022-07-27T21:53:31.367Z,14.38
2022-07-27T21:55:35.177Z,14.40
2022-07-27T21:57:38.870Z,14.43
2022-07-27T21:59:42.567Z,14.44
2022-07-27T22:01:46.607Z,14.46
2022-07-27T22:03:50.609Z,14.46
2022-07-27T22:05:55.719Z,14.47
2022-07-27T22:08:00.614Z,14.49
2022-07-27T22:10:05.385Z,14.48
2022-07-27T22:12:10.329Z,14.48
2022-07-27T22:14:15.650Z,14.48
2022-07-27T22:16:21.276Z,14.47
2022-07-27T22:18:25.603Z,14.45
2022-07-27T22:20:29.910Z,14.45
2022-07-27T22:22:36.188Z,14.43
2022-07-27T22:24:41.511Z,14.42
2022-07-27T22:26:45.746Z,14.41
2022-07-27T22:28:50.080Z,14.39
2022-07-27T22:30:59.900Z,14.38
2022-07-27T22:33:19.102Z,14.39
2022-07-27T22:35:23.920Z,14.40
2022-07-27T22:37:29.008Z,14.41
2022-07-27T22:39:35.152Z,14.42
2022-07-27T22:41:41.741Z,14.42
2022-07-27T22:43:46.987Z,14.42
2022-07-27T22:45:52.107Z,14.42
2022-07-27T22:47:57.593Z,14.42
2022-07-27T22:50:01.753Z,14.41
2022-07-27T22:52:06.787Z,14.38
2022-07-27T22:54:11.207Z,14.35
2022-07-27T22:56:18.277Z,14.33
2022-07-27T22:58:22.486Z,14.32
2022-07-27T23:00:26.489Z,14.32
2022-07-27T23:02:30.817Z,14.31
2022-07-27T23:04:34.909Z,14.29
2022-07-27T23:06:39.231Z,14.27
2022-07-27T23:08:43.958Z,14.27
2022-07-27T23:10:50.155Z,14.26
2022-07-27T23:12:56.216Z,14.26
2022-07-27T23:15:00.420Z,14.24
2022-07-27T23:17:04.967Z,14.22
2022-07-27T23:19:08.437Z,14.19
2022-07-27T23:21:12.861Z,14.18
2022-07-27T23:23:26.013Z,14.18
2022-07-27T23:25:35.039Z,14.17
2022-07-27T23:27:41.250Z,14.18
2022-07-27T23:29:46.897Z,14.18
2022-07-27T23:31:51.226Z,14.18
2022-07-27T23:33:55.592Z,14.17
2022-07-27T23:36:00.456Z,14.16
2022-07-27T23:38:04.983Z,14.15
2022-07-27T23:40:10.121Z,14.14
2022-07-27T23:42:15.059Z,14.11
2022-07-27T23:44:19.342Z,14.10
2022-07-27T23:46:25.372Z,14.06
2022-07-27T23:48:29.965Z,14.05
2022-07-27T23:50:34.135Z,14.05
2022-07-27T23:52:38.555Z,14.06
2022-07-27T23:54:42.784Z,14.08
2022-07-27T23:56:46.928Z,14.08
2022-07-27T23:58:51.179Z,14.07
